sensor_id;sensor_type;location;lat;lon;timestamp;pressure;altitude;pressure_sealevel;temperature;humidity
58757;BME280;44527;47.460;19.016;2023-07-29T00:02:13;99855.91;;;20.85;84.59
58757;BME280;44527;47.460;19.016;2023-07-29T00:05:15;99858.56;;;20.85;84.84
58757;BME280;44527;47.460;19.016;2023-07-29T00:08:18;99859.75;;;20.83;84.99
58757;BME280;44527;47.460;19.016;2023-07-29T00:11:20;99847.81;;;20.79;84.82
58757;BME280;44527;47.460;19.016;2023-07-29T00:14:23;99846.69;;;20.73;85.36
58757;BME280;44527;47.460;19.016;2023-07-29T00:17:25;99850.06;;;20.67;85.98
58757;BME280;44527;47.460;19.016;2023-07-29T00:20:28;99844.97;;;20.57;86.33
58757;BME280;44527;47.460;19.016;2023-07-29T00:23:30;99841.28;;;20.58;86.32
58757;BME280;44527;47.460;19.016;2023-07-29T00:26:32;99842.78;;;20.61;86.19
58757;BME280;44527;47.460;19.016;2023-07-29T00:29:36;99846.78;;;20.57;86.28
58757;BME280;44527;47.460;19.016;2023-07-29T00:32:38;99844.31;;;20.47;87.01
58757;BME280;44527;47.460;19.016;2023-07-29T00:35:41;99848.97;;;20.53;86.88
58757;BME280;44527;47.460;19.016;2023-07-29T00:38:43;99840.37;;;20.43;87.14
58757;BME280;44527;47.460;19.016;2023-07-29T00:41:45;99845.28;;;20.31;87.57
58757;BME280;44527;47.460;19.016;2023-07-29T00:44:48;99844.25;;;20.32;87.13
58757;BME280;44527;47.460;19.016;2023-07-29T00:47:50;99841.78;;;20.31;86.75
58757;BME280;44527;47.460;19.016;2023-07-29T00:50:54;99839.13;;;20.31;86.37
58757;BME280;44527;47.460;19.016;2023-07-29T00:53:56;99832.66;;;20.25;86.50
58757;BME280;44527;47.460;19.016;2023-07-29T00:56:58;99830.88;;;20.17;87.01
58757;BME280;44527;47.460;19.016;2023-07-29T01:00:01;99835.59;;;20.07;87.76
58757;BME280;44527;47.460;19.016;2023-07-29T01:03:05;99833.75;;;20.08;87.64
58757;BME280;44527;47.460;19.016;2023-07-29T01:16:01;99838.47;;;19.97;87.57
58757;BME280;44527;47.460;19.016;2023-07-29T01:19:06;99824.44;;;19.81;89.21
58757;BME280;44527;47.460;19.016;2023-07-29T01:22:13;99826.22;;;19.80;88.97
58757;BME280;44527;47.460;19.016;2023-07-29T01:25:16;99825.72;;;19.85;88.11
58757;BME280;44527;47.460;19.016;2023-07-29T01:28:18;99830.12;;;19.69;89.16
58757;BME280;44527;47.460;19.016;2023-07-29T01:31:34;99831.56;;;19.80;88.75
58757;BME280;44527;47.460;19.016;2023-07-29T01:34:41;99836.41;;;19.77;89.17
58757;BME280;44527;47.460;19.016;2023-07-29T01:37:51;99827.09;;;19.81;89.01
58757;BME280;44527;47.460;19.016;2023-07-29T01:40:56;99830.94;;;19.70;89.78
58757;BME280;44527;47.460;19.016;2023-07-29T01:43:59;99834.47;;;19.54;90.83
58757;BME280;44527;47.460;19.016;2023-07-29T01:47:01;99833.25;;;19.09;94.48
58757;BME280;44527;47.460;19.016;2023-07-29T01:50:04;99840.53;;;19.23;93.51
58757;BME280;44527;47.460;19.016;2023-07-29T01:53:07;99840.53;;;19.32;92.20
58757;BME280;44527;47.460;19.016;2023-07-29T01:56:09;99840.00;;;19.36;91.12
58757;BME280;44527;47.460;19.016;2023-07-29T01:59:12;99840.69;;;19.38;90.19
58757;BME280;44527;47.460;19.016;2023-07-29T02:02:16;99835.50;;;19.37;89.56
58757;BME280;44527;47.460;19.016;2023-07-29T02:05:18;99835.50;;;19.37;89.39
58757;BME280;44527;47.460;19.016;2023-07-29T02:08:21;99844.38;;;19.29;89.59
58757;BME280;44527;47.460;19.016;2023-07-29T02:11:23;99836.38;;;19.21;90.01
58757;BME280;44527;47.460;19.016;2023-07-29T02:14:30;99835.56;;;19.20;89.83
58757;BME280;44527;47.460;19.016;2023-07-29T02:17:32;99834.06;;;19.10;90.48
58757;BME280;44527;47.460;19.016;2023-07-29T02:20:35;99833.72;;;19.13;90.07
58757;BME280;44527;47.460;19.016;2023-07-29T02:23:37;99842.75;;;18.95;91.29
58757;BME280;44527;47.460;19.016;2023-07-29T02:26:41;99840.09;;;18.87;91.91
58757;BME280;44527;47.460;19.016;2023-07-29T02:29:43;99838.44;;;18.86;91.89
58757;BME280;44527;47.460;19.016;2023-07-29T02:32:46;99842.75;;;18.87;91.56
58757;BME280;44527;47.460;19.016;2023-07-29T02:35:48;99839.06;;;18.88;91.30
58757;BME280;44527;47.460;19.016;2023-07-29T02:38:51;99843.56;;;18.88;91.16
58757;BME280;44527;47.460;19.016;2023-07-29T02:41:53;99839.75;;;18.90;91.12
58757;BME280;44527;47.460;19.016;2023-07-29T02:44:57;99843.06;;;19.00;90.41
58757;BME280;44527;47.460;19.016;2023-07-29T02:47:59;99843.25;;;19.07;89.92
58757;BME280;44527;47.460;19.016;2023-07-29T02:51:02;99835.22;;;19.15;89.46
58757;BME280;44527;47.460;19.016;2023-07-29T02:54:04;99843.06;;;19.17;88.67
58757;BME280;44527;47.460;19.016;2023-07-29T02:57:07;99849.22;;;19.01;89.69
58757;BME280;44527;47.460;19.016;2023-07-29T03:00:10;99852.38;;;18.96;89.91
58757;BME280;44527;47.460;19.016;2023-07-29T03:03:12;99854.69;;;18.91;90.47
58757;BME280;44527;47.460;19.016;2023-07-29T03:06:15;99852.72;;;19.01;89.60
58757;BME280;44527;47.460;19.016;2023-07-29T03:09:17;99850.53;;;18.97;89.38
58757;BME280;44527;47.460;19.016;2023-07-29T03:12:20;99859.53;;;18.88;90.21
58757;BME280;44527;47.460;19.016;2023-07-29T03:15:24;99857.03;;;18.94;89.67
58757;BME280;44527;47.460;19.016;2023-07-29T03:18:29;99854.03;;;18.97;89.28
58757;BME280;44527;47.460;19.016;2023-07-29T03:21:31;99853.34;;;19.03;88.58
58757;BME280;44527;47.460;19.016;2023-07-29T03:24:34;99853.22;;;18.89;89.24
58757;BME280;44527;47.460;19.016;2023-07-29T03:27:36;99845.91;;;18.82;89.67
58757;BME280;44527;47.460;19.016;2023-07-29T03:30:38;99847.91;;;18.80;90.31
58757;BME280;44527;47.460;19.016;2023-07-29T03:33:41;99850.72;;;18.87;89.69
58757;BME280;44527;47.460;19.016;2023-07-29T03:36:44;99853.38;;;18.95;89.38
58757;BME280;44527;47.460;19.016;2023-07-29T03:39:49;99855.38;;;19.01;88.71
58757;BME280;44527;47.460;19.016;2023-07-29T03:42:54;99846.53;;;19.09;88.17
58757;BME280;44527;47.460;19.016;2023-07-29T03:45:56;99850.88;;;19.10;88.45
58757;BME280;44527;47.460;19.016;2023-07-29T03:48:59;99857.03;;;19.11;88.32
58757;BME280;44527;47.460;19.016;2023-07-29T03:52:01;99853.53;;;19.10;88.18
58757;BME280;44527;47.460;19.016;2023-07-29T03:55:05;99859.19;;;19.07;88.52
58757;BME280;44527;47.460;19.016;2023-07-29T03:58:07;99853.84;;;19.15;87.42
58757;BME280;44527;47.460;19.016;2023-07-29T04:01:10;99871.81;;;19.13;87.72
58757;BME280;44527;47.460;19.016;2023-07-29T04:04:12;99870.47;;;19.09;87.89
58757;BME280;44527;47.460;19.016;2023-07-29T04:07:15;99864.66;;;19.05;88.27
58757;BME280;44527;47.460;19.016;2023-07-29T04:10:17;99859.03;;;18.92;89.21
58757;BME280;44527;47.460;19.016;2023-07-29T04:13:19;99868.97;;;19.06;88.64
58757;BME280;44527;47.460;19.016;2023-07-29T04:16:22;99869.13;;;19.29;86.86
58757;BME280;44527;47.460;19.016;2023-07-29T04:19:24;99861.47;;;19.35;86.52
58757;BME280;44527;47.460;19.016;2023-07-29T04:22:27;99858.91;;;19.58;85.77
58757;BME280;44527;47.460;19.016;2023-07-29T04:25:29;99864.72;;;19.78;84.35
58757;BME280;44527;47.460;19.016;2023-07-29T04:28:32;99863.63;;;19.95;83.29
58757;BME280;44527;47.460;19.016;2023-07-29T04:31:34;99872.81;;;20.24;81.81
58757;BME280;44527;47.460;19.016;2023-07-29T04:34:37;99872.66;;;20.48;80.63
58757;BME280;44527;47.460;19.016;2023-07-29T04:37:41;99864.37;;;20.89;78.93
58757;BME280;44527;47.460;19.016;2023-07-29T04:40:44;99864.28;;;21.35;76.13
58757;BME280;44527;47.460;19.016;2023-07-29T04:43:46;99857.06;;;21.59;75.29
58757;BME280;44527;47.460;19.016;2023-07-29T04:46:49;99854.09;;;21.68;74.17
58757;BME280;44527;47.460;19.016;2023-07-29T04:49:51;99869.28;;;21.83;74.01
58757;BME280;44527;47.460;19.016;2023-07-29T04:52:54;99862.75;;;22.58;71.83
58757;BME280;44527;47.460;19.016;2023-07-29T04:55:56;99872.09;;;24.16;64.39
58757;BME280;44527;47.460;19.016;2023-07-29T04:58:59;99866.28;;;26.75;55.09
58757;BME280;44527;47.460;19.016;2023-07-29T05:02:01;99869.09;;;28.71;48.39
58757;BME280;44527;47.460;19.016;2023-07-29T05:05:04;99864.94;;;30.66;43.53
58757;BME280;44527;47.460;19.016;2023-07-29T05:08:06;99877.44;;;30.84;42.42
58757;BME280;44527;47.460;19.016;2023-07-29T05:11:09;99886.63;;;32.39;39.48
58757;BME280;44527;47.460;19.016;2023-07-29T05:14:13;99892.59;;;33.75;36.27
58757;BME280;44527;47.460;19.016;2023-07-29T05:17:16;99900.38;;;34.14;34.89
58757;BME280;44527;47.460;19.016;2023-07-29T05:20:18;99892.41;;;32.47;37.71
58757;BME280;44527;47.460;19.016;2023-07-29T05:23:21;99891.09;;;30.89;41.81
58757;BME280;44527;47.460;19.016;2023-07-29T05:26:24;99895.06;;;29.49;45.10
58757;BME280;44527;47.460;19.016;2023-07-29T05:29:26;99899.28;;;29.09;46.78
58757;BME280;44527;47.460;19.016;2023-07-29T05:32:28;99901.06;;;28.44;49.02
58757;BME280;44527;47.460;19.016;2023-07-29T05:35:32;99907.88;;;29.42;46.40
58757;BME280;44527;47.460;19.016;2023-07-29T05:38:34;99903.09;;;28.90;47.59
58757;BME280;44527;47.460;19.016;2023-07-29T05:41:37;99909.03;;;28.69;47.41
58757;BME280;44527;47.460;19.016;2023-07-29T05:44:39;99912.78;;;28.68;47.44
58757;BME280;44527;47.460;19.016;2023-07-29T05:47:41;99915.38;;;29.16;46.48
58757;BME280;44527;47.460;19.016;2023-07-29T05:50:44;99913.12;;;29.84;45.61
58757;BME280;44527;47.460;19.016;2023-07-29T05:53:47;99917.59;;;31.21;42.77
58757;BME280;44527;47.460;19.016;2023-07-29T05:56:50;99917.44;;;31.11;42.32
58757;BME280;44527;47.460;19.016;2023-07-29T05:59:52;99921.69;;;30.44;44.27
58757;BME280;44527;47.460;19.016;2023-07-29T06:02:55;99926.41;;;29.38;47.10
58757;BME280;44527;47.460;19.016;2023-07-29T06:05:57;99932.81;;;28.30;49.77
58757;BME280;44527;47.460;19.016;2023-07-29T06:08:59;99932.53;;;27.58;52.87
58757;BME280;44527;47.460;19.016;2023-07-29T06:12:02;99935.69;;;27.04;55.16
58757;BME280;44527;47.460;19.016;2023-07-29T06:15:05;99946.94;;;26.63;56.32
58757;BME280;44527;47.460;19.016;2023-07-29T06:18:08;99943.25;;;26.57;57.72
58757;BME280;44527;47.460;19.016;2023-07-29T06:21:10;99945.13;;;26.57;58.05
58757;BME280;44527;47.460;19.016;2023-07-29T06:24:19;99941.63;;;26.43;58.29
58757;BME280;44527;47.460;19.016;2023-07-29T06:27:21;99938.50;;;26.46;58.81
58757;BME280;44527;47.460;19.016;2023-07-29T06:30:24;99950.59;;;27.57;55.47
58757;BME280;44527;47.460;19.016;2023-07-29T06:33:26;99951.69;;;30.83;46.28
58757;BME280;44527;47.460;19.016;2023-07-29T06:36:28;99954.97;;;33.12;40.18
58757;BME280;44527;47.460;19.016;2023-07-29T06:39:31;99955.06;;;34.90;36.21
58757;BME280;44527;47.460;19.016;2023-07-29T06:42:33;99959.94;;;36.85;32.44
58757;BME280;44527;47.460;19.016;2023-07-29T06:45:36;99960.22;;;37.22;31.58
58757;BME280;44527;47.460;19.016;2023-07-29T06:48:38;99972.28;;;38.66;29.20
58757;BME280;44527;47.460;19.016;2023-07-29T06:51:41;99960.88;;;38.58;29.03
58757;BME280;44527;47.460;19.016;2023-07-29T06:54:43;99959.28;;;38.33;29.37
58757;BME280;44527;47.460;19.016;2023-07-29T06:57:46;99956.69;;;38.80;28.75
58757;BME280;44527;47.460;19.016;2023-07-29T07:00:48;99954.25;;;39.30;28.17
58757;BME280;44527;47.460;19.016;2023-07-29T07:03:50;99948.84;;;39.85;27.35
58757;BME280;44527;47.460;19.016;2023-07-29T07:06:56;99956.25;;;39.24;27.61
58757;BME280;44527;47.460;19.016;2023-07-29T07:09:59;99954.41;;;39.20;27.98
58757;BME280;44527;47.460;19.016;2023-07-29T07:13:03;99937.88;;;39.25;27.38
58757;BME280;44527;47.460;19.016;2023-07-29T07:16:05;99942.72;;;39.14;27.75
58757;BME280;44527;47.460;19.016;2023-07-29T07:19:07;99940.78;;;38.44;28.44
58757;BME280;44527;47.460;19.016;2023-07-29T07:22:10;99942.69;;;38.25;28.49
58757;BME280;44527;47.460;19.016;2023-07-29T07:25:12;99940.19;;;39.78;26.20
58757;BME280;44527;47.460;19.016;2023-07-29T07:28:14;99948.84;;;38.92;27.54
58757;BME280;44527;47.460;19.016;2023-07-29T07:31:17;99944.84;;;38.84;27.76
58757;BME280;44527;47.460;19.016;2023-07-29T07:34:22;99941.09;;;37.76;29.32
58757;BME280;44527;47.460;19.016;2023-07-29T07:37:25;99941.09;;;38.00;28.97
58757;BME280;44527;47.460;19.016;2023-07-29T07:40:27;99935.06;;;37.74;29.46
58757;BME280;44527;47.460;19.016;2023-07-29T07:43:30;99943.38;;;37.39;30.15
58757;BME280;44527;47.460;19.016;2023-07-29T07:46:32;99941.28;;;38.27;28.70
58757;BME280;44527;47.460;19.016;2023-07-29T07:49:35;99937.56;;;38.75;27.77
58757;BME280;44527;47.460;19.016;2023-07-29T07:52:37;99929.06;;;39.42;26.66
58757;BME280;44527;47.460;19.016;2023-07-29T07:55:39;99931.59;;;38.92;26.96
58757;BME280;44527;47.460;19.016;2023-07-29T07:58:42;99933.53;;;38.53;27.15
58757;BME280;44527;47.460;19.016;2023-07-29T08:01:44;99927.59;;;38.84;27.21
58757;BME280;44527;47.460;19.016;2023-07-29T08:04:47;99927.19;;;38.15;28.16
58757;BME280;44527;47.460;19.016;2023-07-29T08:07:50;99927.16;;;37.43;28.85
58757;BME280;44527;47.460;19.016;2023-07-29T08:10:56;99917.63;;;37.40;27.78
58757;BME280;44527;47.460;19.016;2023-07-29T08:13:59;99918.25;;;36.69;29.35
58757;BME280;44527;47.460;19.016;2023-07-29T08:17:01;99916.03;;;36.21;30.11
58757;BME280;44527;47.460;19.016;2023-07-29T08:20:06;99910.81;;;35.60;31.22
58757;BME280;44527;47.460;19.016;2023-07-29T08:23:09;99908.97;;;35.19;31.81
58757;BME280;44527;47.460;19.016;2023-07-29T08:26:11;99910.25;;;34.35;32.82
58757;BME280;44527;47.460;19.016;2023-07-29T08:29:14;99915.41;;;34.26;33.41
58757;BME280;44527;47.460;19.016;2023-07-29T08:32:16;99916.94;;;34.02;34.00
58757;BME280;44527;47.460;19.016;2023-07-29T08:35:18;99908.03;;;33.64;35.47
58757;BME280;44527;47.460;19.016;2023-07-29T08:38:21;99907.34;;;33.04;35.41
58757;BME280;44527;47.460;19.016;2023-07-29T08:44:56;99894.94;;;32.32;36.76
58757;BME280;44527;47.460;19.016;2023-07-29T08:47:59;99895.66;;;32.22;36.73
58757;BME280;44527;47.460;19.016;2023-07-29T08:51:04;99895.19;;;32.03;36.35
58757;BME280;44527;47.460;19.016;2023-07-29T08:54:10;99899.41;;;32.16;36.22
58757;BME280;44527;47.460;19.016;2023-07-29T08:57:13;99896.66;;;32.11;36.26
58757;BME280;44527;47.460;19.016;2023-07-29T09:00:16;99888.66;;;32.04;36.57
58757;BME280;44527;47.460;19.016;2023-07-29T09:03:22;99888.94;;;32.03;36.57
58757;BME280;44527;47.460;19.016;2023-07-29T09:06:25;99889.69;;;31.98;36.64
58757;BME280;44527;47.460;19.016;2023-07-29T09:09:29;99888.06;;;31.97;36.70
58757;BME280;44527;47.460;19.016;2023-07-29T09:12:31;99879.16;;;32.02;35.56
58757;BME280;44527;47.460;19.016;2023-07-29T09:15:35;99882.16;;;31.84;36.39
58757;BME280;44527;47.460;19.016;2023-07-29T09:18:38;99879.94;;;32.24;36.58
58757;BME280;44527;47.460;19.016;2023-07-29T09:21:41;99874.25;;;32.26;35.93
58757;BME280;44527;47.460;19.016;2023-07-29T09:24:44;99870.03;;;32.13;37.01
58757;BME280;44527;47.460;19.016;2023-07-29T09:27:47;99872.91;;;32.01;36.69
58757;BME280;44527;47.460;19.016;2023-07-29T09:30:49;99877.41;;;31.74;37.33
58757;BME280;44527;47.460;19.016;2023-07-29T09:33:56;99869.03;;;31.53;37.57
58757;BME280;44527;47.460;19.016;2023-07-29T09:37:00;99867.75;;;31.83;37.11
58757;BME280;44527;47.460;19.016;2023-07-29T09:40:02;99856.50;;;31.91;37.34
58757;BME280;44527;47.460;19.016;2023-07-29T09:43:06;99854.91;;;32.17;35.95
58757;BME280;44527;47.460;19.016;2023-07-29T09:46:09;99858.72;;;31.94;35.94
58757;BME280;44527;47.460;19.016;2023-07-29T09:49:11;99860.97;;;32.02;36.01
58757;BME280;44527;47.460;19.016;2023-07-29T09:52:15;99854.91;;;32.17;35.54
58757;BME280;44527;47.460;19.016;2023-07-29T09:55:19;99856.16;;;32.10;35.66
58757;BME280;44527;47.460;19.016;2023-07-29T09:58:28;99846.34;;;32.31;34.97
58757;BME280;44527;47.460;19.016;2023-07-29T10:01:30;99854.38;;;32.20;35.12
58757;BME280;44527;47.460;19.016;2023-07-29T10:04:34;99847.34;;;31.97;35.42
58757;BME280;44527;47.460;19.016;2023-07-29T10:07:37;99852.84;;;32.30;34.42
58757;BME280;44527;47.460;19.016;2023-07-29T10:10:43;99842.66;;;32.42;34.19
58757;BME280;44527;47.460;19.016;2023-07-29T10:13:45;99848.19;;;32.52;33.16
58757;BME280;44527;47.460;19.016;2023-07-29T10:17:08;99851.34;;;32.71;32.12
58757;BME280;44527;47.460;19.016;2023-07-29T10:20:11;99850.88;;;32.79;31.47
58757;BME280;44527;47.460;19.016;2023-07-29T10:23:15;99845.03;;;32.60;32.19
58757;BME280;44527;47.460;19.016;2023-07-29T10:26:19;99840.09;;;32.57;32.46
58757;BME280;44527;47.460;19.016;2023-07-29T10:29:23;99839.94;;;32.42;33.17
58757;BME280;44527;47.460;19.016;2023-07-29T10:32:26;99837.28;;;32.47;32.47
58757;BME280;44527;47.460;19.016;2023-07-29T10:35:29;99840.31;;;32.01;34.03
58757;BME280;44527;47.460;19.016;2023-07-29T10:38:32;99844.38;;;31.99;34.83
58757;BME280;44527;47.460;19.016;2023-07-29T10:41:54;99845.81;;;32.34;33.62
58757;BME280;44527;47.460;19.016;2023-07-29T10:44:57;99839.81;;;32.59;32.68
58757;BME280;44527;47.460;19.016;2023-07-29T10:47:59;99840.78;;;33.12;32.03
58757;BME280;44527;47.460;19.016;2023-07-29T10:51:31;99838.47;;;32.93;32.27
58757;BME280;44527;47.460;19.016;2023-07-29T10:54:47;99829.88;;;32.69;32.69
58757;BME280;44527;47.460;19.016;2023-07-29T10:57:50;99830.81;;;32.85;33.41
58757;BME280;44527;47.460;19.016;2023-07-29T11:00:52;99834.16;;;32.65;33.81
58757;BME280;44527;47.460;19.016;2023-07-29T11:07:27;99836.22;;;33.17;32.85
58757;BME280;44527;47.460;19.016;2023-07-29T11:10:42;99834.09;;;33.30;32.81
58757;BME280;44527;47.460;19.016;2023-07-29T11:13:45;99836.00;;;33.29;32.87
58757;BME280;44527;47.460;19.016;2023-07-29T11:16:48;99841.31;;;33.51;31.52
58757;BME280;44527;47.460;19.016;2023-07-29T11:19:51;99838.91;;;33.17;31.85
58757;BME280;44527;47.460;19.016;2023-07-29T11:22:54;99833.78;;;32.84;33.77
58757;BME280;44527;47.460;19.016;2023-07-29T11:25:57;99836.78;;;32.87;34.25
58757;BME280;44527;47.460;19.016;2023-07-29T11:29:00;99837.25;;;33.06;34.06
58757;BME280;44527;47.460;19.016;2023-07-29T11:32:03;99832.84;;;33.00;34.26
58757;BME280;44527;47.460;19.016;2023-07-29T11:35:07;99825.44;;;32.58;34.17
58757;BME280;44527;47.460;19.016;2023-07-29T11:38:14;99832.72;;;32.85;34.37
58757;BME280;44527;47.460;19.016;2023-07-29T11:41:19;99829.44;;;32.83;33.07
58757;BME280;44527;47.460;19.016;2023-07-29T11:44:21;99829.12;;;32.79;33.90
58757;BME280;44527;47.460;19.016;2023-07-29T11:47:23;99816.53;;;32.09;34.79
58757;BME280;44527;47.460;19.016;2023-07-29T11:50:26;99816.16;;;32.00;35.11
58757;BME280;44527;47.460;19.016;2023-07-29T11:53:29;99808.91;;;31.62;36.37
58757;BME280;44527;47.460;19.016;2023-07-29T11:56:32;99810.09;;;31.10;37.17
58757;BME280;44527;47.460;19.016;2023-07-29T11:59:36;99807.28;;;30.83;37.61
58757;BME280;44527;47.460;19.016;2023-07-29T12:02:41;99804.78;;;30.81;37.78
58757;BME280;44527;47.460;19.016;2023-07-29T12:05:45;99798.06;;;31.40;36.54
58757;BME280;44527;47.460;19.016;2023-07-29T12:08:47;99799.41;;;31.86;36.44
58757;BME280;44527;47.460;19.016;2023-07-29T12:11:51;99793.06;;;32.24;35.20
58757;BME280;44527;47.460;19.016;2023-07-29T12:14:54;99795.47;;;32.48;35.61
58757;BME280;44527;47.460;19.016;2023-07-29T12:17:58;99793.69;;;32.64;34.29
58757;BME280;44527;47.460;19.016;2023-07-29T12:21:01;99797.63;;;32.46;34.74
58757;BME280;44527;47.460;19.016;2023-07-29T12:24:04;99792.75;;;32.21;35.22
58757;BME280;44527;47.460;19.016;2023-07-29T12:27:12;99788.16;;;31.94;35.37
58757;BME280;44527;47.460;19.016;2023-07-29T12:30:15;99792.25;;;31.75;36.51
58757;BME280;44527;47.460;19.016;2023-07-29T12:33:36;99786.25;;;31.95;36.14
58757;BME280;44527;47.460;19.016;2023-07-29T12:36:44;99789.69;;;32.12;35.98
58757;BME280;44527;47.460;19.016;2023-07-29T12:39:49;99781.31;;;32.19;36.00
58757;BME280;44527;47.460;19.016;2023-07-29T12:42:53;99786.09;;;32.34;34.94
58757;BME280;44527;47.460;19.016;2023-07-29T12:45:57;99776.31;;;32.33;34.67
58757;BME280;44527;47.460;19.016;2023-07-29T12:48:59;99780.59;;;32.01;34.91
58757;BME280;44527;47.460;19.016;2023-07-29T12:52:02;99783.00;;;31.93;35.41
58757;BME280;44527;47.460;19.016;2023-07-29T12:55:05;99775.00;;;31.59;35.96
58757;BME280;44527;47.460;19.016;2023-07-29T12:58:10;99775.56;;;31.22;37.16
58757;BME280;44527;47.460;19.016;2023-07-29T13:01:14;99773.13;;;31.04;37.99
58757;BME280;44527;47.460;19.016;2023-07-29T13:04:19;99764.87;;;30.77;37.29
58757;BME280;44527;47.460;19.016;2023-07-29T13:07:22;99763.81;;;30.61;37.45
58757;BME280;44527;47.460;19.016;2023-07-29T13:10:24;99749.94;;;30.74;37.57
58757;BME280;44527;47.460;19.016;2023-07-29T13:13:27;99758.34;;;31.11;37.21
58757;BME280;44527;47.460;19.016;2023-07-29T13:16:29;99758.03;;;31.47;35.60
58757;BME280;44527;47.460;19.016;2023-07-29T13:19:32;99749.37;;;31.50;35.88
58757;BME280;44527;47.460;19.016;2023-07-29T13:22:34;99749.91;;;31.74;35.03
58757;BME280;44527;47.460;19.016;2023-07-29T13:25:36;99751.88;;;31.78;35.34
58757;BME280;44527;47.460;19.016;2023-07-29T13:28:38;99748.13;;;31.85;34.60
58757;BME280;44527;47.460;19.016;2023-07-29T13:31:41;99739.47;;;31.88;34.85
58757;BME280;44527;47.460;19.016;2023-07-29T13:34:43;99747.63;;;31.88;34.66
58757;BME280;44527;47.460;19.016;2023-07-29T13:37:46;99741.06;;;31.84;34.62
58757;BME280;44527;47.460;19.016;2023-07-29T13:40:48;99735.69;;;31.89;33.89
58757;BME280;44527;47.460;19.016;2023-07-29T13:43:53;99735.75;;;31.94;34.71
58757;BME280;44527;47.460;19.016;2023-07-29T13:46:55;99724.13;;;31.98;34.93
58757;BME280;44527;47.460;19.016;2023-07-29T13:49:58;99723.38;;;32.03;34.61
58757;BME280;44527;47.460;19.016;2023-07-29T13:53:01;99725.50;;;31.96;34.86
58757;BME280;44527;47.460;19.016;2023-07-29T13:56:04;99710.56;;;31.98;34.89
58757;BME280;44527;47.460;19.016;2023-07-29T13:59:06;99715.50;;;31.79;34.56
58757;BME280;44527;47.460;19.016;2023-07-29T14:02:09;99712.09;;;31.62;34.64
58757;BME280;44527;47.460;19.016;2023-07-29T14:05:11;99704.34;;;31.76;34.69
58757;BME280;44527;47.460;19.016;2023-07-29T14:08:14;99705.53;;;31.58;35.31
58757;BME280;44527;47.460;19.016;2023-07-29T14:11:17;99707.00;;;31.71;35.03
58757;BME280;44527;47.460;19.016;2023-07-29T14:14:19;99694.00;;;31.73;34.80
58757;BME280;44527;47.460;19.016;2023-07-29T14:17:23;99693.41;;;31.66;34.37
58757;BME280;44527;47.460;19.016;2023-07-29T14:20:26;99685.00;;;31.67;34.94
58757;BME280;44527;47.460;19.016;2023-07-29T14:23:28;99683.22;;;31.51;34.90
58757;BME280;44527;47.460;19.016;2023-07-29T14:26:32;99682.84;;;31.20;35.12
58757;BME280;44527;47.460;19.016;2023-07-29T14:29:34;99680.31;;;30.91;35.80
58757;BME280;44527;47.460;19.016;2023-07-29T14:32:37;99693.66;;;30.59;36.81
58757;BME280;44527;47.460;19.016;2023-07-29T14:35:40;99692.75;;;30.54;36.86
58757;BME280;44527;47.460;19.016;2023-07-29T14:38:42;99684.62;;;30.54;37.04
58757;BME280;44527;47.460;19.016;2023-07-29T14:41:45;99678.91;;;30.50;37.43
58757;BME280;44527;47.460;19.016;2023-07-29T14:44:47;99682.28;;;30.40;38.28
58757;BME280;44527;47.460;19.016;2023-07-29T14:47:49;99684.31;;;30.33;38.73
58757;BME280;44527;47.460;19.016;2023-07-29T14:50:52;99685.66;;;30.31;38.48
58757;BME280;44527;47.460;19.016;2023-07-29T14:53:55;99685.38;;;30.15;38.66
58757;BME280;44527;47.460;19.016;2023-07-29T14:56:57;99679.88;;;30.10;39.00
58757;BME280;44527;47.460;19.016;2023-07-29T15:00:00;99672.56;;;30.11;39.11
58757;BME280;44527;47.460;19.016;2023-07-29T15:03:08;99678.00;;;30.11;40.20
58757;BME280;44527;47.460;19.016;2023-07-29T15:06:10;99676.41;;;30.15;38.96
58757;BME280;44527;47.460;19.016;2023-07-29T15:09:13;99669.47;;;30.19;39.24
58757;BME280;44527;47.460;19.016;2023-07-29T15:12:15;99674.84;;;30.31;39.27
58757;BME280;44527;47.460;19.016;2023-07-29T15:15:18;99678.00;;;30.44;39.35
58757;BME280;44527;47.460;19.016;2023-07-29T15:18:20;99666.66;;;30.64;39.04
58757;BME280;44527;47.460;19.016;2023-07-29T15:21:23;99675.25;;;30.78;39.37
58757;BME280;44527;47.460;19.016;2023-07-29T15:24:26;99671.34;;;30.91;38.86
58757;BME280;44527;47.460;19.016;2023-07-29T15:27:31;99678.28;;;31.04;38.44
58757;BME280;44527;47.460;19.016;2023-07-29T15:30:35;99666.59;;;31.20;38.44
58757;BME280;44527;47.460;19.016;2023-07-29T15:33:38;99671.69;;;31.17;38.94
58757;BME280;44527;47.460;19.016;2023-07-29T15:36:41;99672.75;;;31.16;38.68
58757;BME280;44527;47.460;19.016;2023-07-29T15:39:43;99681.31;;;30.85;39.23
58757;BME280;44527;47.460;19.016;2023-07-29T15:42:46;99676.31;;;30.60;39.38
58757;BME280;44527;47.460;19.016;2023-07-29T15:45:48;99679.56;;;30.23;40.42
58757;BME280;44527;47.460;19.016;2023-07-29T15:48:50;99675.78;;;29.91;41.07
58757;BME280;44527;47.460;19.016;2023-07-29T15:51:53;99682.22;;;29.73;41.28
58757;BME280;44527;47.460;19.016;2023-07-29T15:54:55;99684.50;;;29.52;42.31
58757;BME280;44527;47.460;19.016;2023-07-29T15:57:57;99687.59;;;29.44;42.86
58757;BME280;44527;47.460;19.016;2023-07-29T16:01:00;99683.09;;;29.50;41.67
58757;BME280;44527;47.460;19.016;2023-07-29T16:04:03;99686.91;;;29.37;42.08
58757;BME280;44527;47.460;19.016;2023-07-29T16:07:05;99690.84;;;29.29;42.07
58757;BME280;44527;47.460;19.016;2023-07-29T16:10:08;99698.56;;;29.26;41.30
58757;BME280;44527;47.460;19.016;2023-07-29T16:13:11;99694.13;;;29.20;41.81
58757;BME280;44527;47.460;19.016;2023-07-29T16:16:15;99697.56;;;29.15;41.81